Bremen, Kansas
Current Conditions -  °F | °C
As of 3:35 PM on Friday 24 Oct 2014 (Local Time) from KMYZ Reporting Station
Clear Clear  
Wind Chill: 79°   Ceiling: Unl
Heat Index: 80°   Visibility: 10mi
Dew Point: 63°   Wind: 14mph
Humidity: 57%   Direction: 210°SSW
Pressure: 29.91"   Gusts: 20mph
Location:  39.9°N, 96.79°W
Report Text: KMYZ 242035Z AUTO 21012G17KT 10SM CLR 26/17 A2991 RMK AO2
Loading
Personal Weather Stations






























Interactive Weather Map
Tropical Storm Tracking
New forecast layout! Learn more

10-Day Weather Forecast

Advertisements
Track Severe Weather on mobile